sensor_id;sensor_type;location;lat;lon;timestamp;P1;durP1;ratioP1;P2;durP2;ratioP2
60257;SDS011;46115;44.484;11.314;2023-09-12T00:03:33;9.10;;;6.80;;
60257;SDS011;46115;44.484;11.314;2023-09-12T00:07:38;9.30;;;6.30;;
60257;SDS011;46115;44.484;11.314;2023-09-12T00:11:43;7.45;;;6.28;;
60257;SDS011;46115;44.484;11.314;2023-09-12T00:15:47;6.78;;;5.97;;
60257;SDS011;46115;44.484;11.314;2023-09-12T00:19:50;7.97;;;6.25;;
60257;SDS011;46115;44.484;11.314;2023-09-12T00:23:52;9.30;;;6.43;;
60257;SDS011;46115;44.484;11.314;2023-09-12T00:27:54;9.05;;;6.60;;
60257;SDS011;46115;44.484;11.314;2023-09-12T00:31:58;11.52;;;6.68;;
60257;SDS011;46115;44.484;11.314;2023-09-12T00:36:01;7.03;;;6.28;;
60257;SDS011;46115;44.484;11.314;2023-09-12T00:40:04;7.25;;;6.30;;
60257;SDS011;46115;44.484;11.314;2023-09-12T00:44:07;8.30;;;6.53;;
60257;SDS011;46115;44.484;11.314;2023-09-12T00:48:13;8.18;;;6.25;;
60257;SDS011;46115;44.484;11.314;2023-09-12T00:52:17;7.72;;;6.53;;
60257;SDS011;46115;44.484;11.314;2023-09-12T00:56:21;9.70;;;6.35;;
60257;SDS011;46115;44.484;11.314;2023-09-12T01:00:24;7.60;;;6.80;;
60257;SDS011;46115;44.484;11.314;2023-09-12T01:04:28;7.57;;;6.78;;
60257;SDS011;46115;44.484;11.314;2023-09-12T01:08:31;7.10;;;6.40;;
60257;SDS011;46115;44.484;11.314;2023-09-12T01:12:34;8.20;;;6.72;;
60257;SDS011;46115;44.484;11.314;2023-09-12T01:16:37;6.72;;;6.05;;
60257;SDS011;46115;44.484;11.314;2023-09-12T01:20:41;9.35;;;6.50;;
60257;SDS011;46115;44.484;11.314;2023-09-12T01:29:43;7.88;;;6.00;;
60257;SDS011;46115;44.484;11.314;2023-09-12T01:33:48;7.75;;;6.00;;
60257;SDS011;46115;44.484;11.314;2023-09-12T01:37:50;7.75;;;6.20;;
60257;SDS011;46115;44.484;11.314;2023-09-12T01:41:53;6.90;;;6.13;;
60257;SDS011;46115;44.484;11.314;2023-09-12T01:45:58;6.90;;;6.20;;
60257;SDS011;46115;44.484;11.314;2023-09-12T01:50:02;6.80;;;6.20;;
60257;SDS011;46115;44.484;11.314;2023-09-12T01:54:07;7.72;;;6.13;;
60257;SDS011;46115;44.484;11.314;2023-09-12T01:58:09;7.07;;;6.38;;
60257;SDS011;46115;44.484;11.314;2023-09-12T02:02:14;7.03;;;6.32;;
60257;SDS011;46115;44.484;11.314;2023-09-12T02:06:16;6.95;;;6.20;;
60257;SDS011;46115;44.484;11.314;2023-09-12T02:10:19;7.07;;;6.38;;
60257;SDS011;46115;44.484;11.314;2023-09-12T02:14:21;7.72;;;6.22;;
60257;SDS011;46115;44.484;11.314;2023-09-12T02:18:25;9.57;;;6.30;;
60257;SDS011;46115;44.484;11.314;2023-09-12T02:22:28;7.30;;;6.60;;
60257;SDS011;46115;44.484;11.314;2023-09-12T02:26:30;7.90;;;6.43;;
60257;SDS011;46115;44.484;11.314;2023-09-12T02:30:37;7.80;;;6.38;;
60257;SDS011;46115;44.484;11.314;2023-09-12T02:34:42;7.70;;;6.25;;
60257;SDS011;46115;44.484;11.314;2023-09-12T02:38:44;7.30;;;6.10;;
60257;SDS011;46115;44.484;11.314;2023-09-12T02:42:47;9.68;;;5.90;;
60257;SDS011;46115;44.484;11.314;2023-09-12T02:46:50;7.10;;;6.00;;
60257;SDS011;46115;44.484;11.314;2023-09-12T02:50:54;7.68;;;5.90;;
60257;SDS011;46115;44.484;11.314;2023-09-12T02:54:56;7.50;;;5.90;;
60257;SDS011;46115;44.484;11.314;2023-09-12T02:58:59;7.10;;;6.40;;
60257;SDS011;46115;44.484;11.314;2023-09-12T03:03:01;6.63;;;5.97;;
60257;SDS011;46115;44.484;11.314;2023-09-12T03:07:05;6.53;;;5.90;;
60257;SDS011;46115;44.484;11.314;2023-09-12T03:11:08;7.82;;;6.05;;
60257;SDS011;46115;44.484;11.314;2023-09-12T03:15:11;6.53;;;5.93;;
60257;SDS011;46115;44.484;11.314;2023-09-12T03:19:13;12.57;;;6.13;;
60257;SDS011;46115;44.484;11.314;2023-09-12T03:23:18;9.32;;;6.10;;
60257;SDS011;46115;44.484;11.314;2023-09-12T03:27:21;9.18;;;5.95;;
60257;SDS011;46115;44.484;11.314;2023-09-12T03:31:24;6.70;;;6.10;;
60257;SDS011;46115;44.484;11.314;2023-09-12T03:35:28;7.43;;;6.15;;
60257;SDS011;46115;44.484;11.314;2023-09-12T03:39:32;6.85;;;6.03;;
60257;SDS011;46115;44.484;11.314;2023-09-12T03:43:36;8.27;;;5.88;;
60257;SDS011;46115;44.484;11.314;2023-09-12T03:47:39;6.57;;;5.97;;
60257;SDS011;46115;44.484;11.314;2023-09-12T03:51:41;6.82;;;6.18;;
60257;SDS011;46115;44.484;11.314;2023-09-12T03:55:45;7.32;;;6.10;;
60257;SDS011;46115;44.484;11.314;2023-09-12T03:59:48;6.45;;;5.75;;
60257;SDS011;46115;44.484;11.314;2023-09-12T04:03:52;8.20;;;5.90;;
60257;SDS011;46115;44.484;11.314;2023-09-12T04:07:54;6.72;;;6.05;;
60257;SDS011;46115;44.484;11.314;2023-09-12T04:11:58;6.53;;;5.93;;
60257;SDS011;46115;44.484;11.314;2023-09-12T04:16:02;7.00;;;5.82;;
60257;SDS011;46115;44.484;11.314;2023-09-12T04:20:05;8.43;;;6.40;;
60257;SDS011;46115;44.484;11.314;2023-09-12T04:24:09;7.43;;;5.90;;
60257;SDS011;46115;44.484;11.314;2023-09-12T04:28:13;8.25;;;5.93;;
60257;SDS011;46115;44.484;11.314;2023-09-12T04:32:16;7.88;;;5.90;;
60257;SDS011;46115;44.484;11.314;2023-09-12T04:36:24;7.47;;;5.75;;
60257;SDS011;46115;44.484;11.314;2023-09-12T04:40:26;11.43;;;5.90;;
60257;SDS011;46115;44.484;11.314;2023-09-12T04:44:31;6.68;;;5.60;;
60257;SDS011;46115;44.484;11.314;2023-09-12T04:48:38;6.30;;;5.65;;
60257;SDS011;46115;44.484;11.314;2023-09-12T04:52:40;7.13;;;5.82;;
60257;SDS011;46115;44.484;11.314;2023-09-12T04:56:44;6.43;;;5.80;;
60257;SDS011;46115;44.484;11.314;2023-09-12T05:00:48;6.93;;;5.70;;
60257;SDS011;46115;44.484;11.314;2023-09-12T05:04:50;6.22;;;5.47;;
60257;SDS011;46115;44.484;11.314;2023-09-12T05:08:53;6.07;;;5.47;;
60257;SDS011;46115;44.484;11.314;2023-09-12T05:12:55;8.82;;;5.57;;
60257;SDS011;46115;44.484;11.314;2023-09-12T05:16:59;7.72;;;5.25;;
60257;SDS011;46115;44.484;11.314;2023-09-12T05:21:03;6.07;;;5.47;;
60257;SDS011;46115;44.484;11.314;2023-09-12T05:25:05;6.97;;;5.35;;
60257;SDS011;46115;44.484;11.314;2023-09-12T05:29:08;8.20;;;5.60;;
60257;SDS011;46115;44.484;11.314;2023-09-12T05:33:12;7.00;;;5.80;;
60257;SDS011;46115;44.484;11.314;2023-09-12T05:37:17;8.90;;;5.80;;
60257;SDS011;46115;44.484;11.314;2023-09-12T05:41:21;6.25;;;5.55;;
60257;SDS011;46115;44.484;11.314;2023-09-12T05:45:24;7.75;;;5.70;;
60257;SDS011;46115;44.484;11.314;2023-09-12T05:49:28;6.65;;;5.68;;
60257;SDS011;46115;44.484;11.314;2023-09-12T05:53:31;8.60;;;5.70;;
60257;SDS011;46115;44.484;11.314;2023-09-12T05:57:34;7.18;;;5.40;;
60257;SDS011;46115;44.484;11.314;2023-09-12T06:01:37;6.45;;;5.40;;
60257;SDS011;46115;44.484;11.314;2023-09-12T06:05:41;6.05;;;5.38;;
60257;SDS011;46115;44.484;11.314;2023-09-12T06:09:44;6.07;;;5.53;;
60257;SDS011;46115;44.484;11.314;2023-09-12T06:13:46;6.65;;;5.40;;
60257;SDS011;46115;44.484;11.314;2023-09-12T06:17:49;6.80;;;5.32;;
60257;SDS011;46115;44.484;11.314;2023-09-12T06:21:53;5.93;;;5.18;;
60257;SDS011;46115;44.484;11.314;2023-09-12T06:25:56;5.38;;;4.78;;
60257;SDS011;46115;44.484;11.314;2023-09-12T06:29:59;8.77;;;5.22;;
60257;SDS011;46115;44.484;11.314;2023-09-12T06:34:02;5.78;;;4.78;;
60257;SDS011;46115;44.484;11.314;2023-09-12T06:38:06;6.28;;;4.90;;
60257;SDS011;46115;44.484;11.314;2023-09-12T06:42:08;6.00;;;4.55;;
60257;SDS011;46115;44.484;11.314;2023-09-12T06:46:11;9.68;;;4.63;;
60257;SDS011;46115;44.484;11.314;2023-09-12T06:50:13;7.28;;;4.72;;
60257;SDS011;46115;44.484;11.314;2023-09-12T06:54:17;6.00;;;4.40;;
60257;SDS011;46115;44.484;11.314;2023-09-12T06:58:20;5.90;;;4.53;;
60257;SDS011;46115;44.484;11.314;2023-09-12T07:02:22;4.72;;;4.15;;
60257;SDS011;46115;44.484;11.314;2023-09-12T07:06:25;7.35;;;4.55;;
60257;SDS011;46115;44.484;11.314;2023-09-12T07:10:29;7.03;;;4.53;;
60257;SDS011;46115;44.484;11.314;2023-09-12T07:14:31;7.60;;;4.05;;
60257;SDS011;46115;44.484;11.314;2023-09-12T07:18:34;4.57;;;3.85;;
60257;SDS011;46115;44.484;11.314;2023-09-12T07:22:37;7.75;;;4.68;;
60257;SDS011;46115;44.484;11.314;2023-09-12T07:26:42;6.80;;;4.30;;
60257;SDS011;46115;44.484;11.314;2023-09-12T07:30:45;6.00;;;4.20;;
60257;SDS011;46115;44.484;11.314;2023-09-12T07:34:48;4.72;;;3.70;;
60257;SDS011;46115;44.484;11.314;2023-09-12T07:38:50;4.47;;;4.07;;
60257;SDS011;46115;44.484;11.314;2023-09-12T07:42:55;6.00;;;4.30;;
60257;SDS011;46115;44.484;11.314;2023-09-12T07:46:58;5.85;;;4.30;;
60257;SDS011;46115;44.484;11.314;2023-09-12T07:51:00;7.18;;;4.63;;
60257;SDS011;46115;44.484;11.314;2023-09-12T07:55:03;5.10;;;4.30;;
60257;SDS011;46115;44.484;11.314;2023-09-12T07:59:08;7.72;;;4.60;;
60257;SDS011;46115;44.484;11.314;2023-09-12T08:03:13;5.88;;;4.18;;
60257;SDS011;46115;44.484;11.314;2023-09-12T08:07:15;6.82;;;4.13;;
60257;SDS011;46115;44.484;11.314;2023-09-12T08:11:18;8.35;;;4.20;;
60257;SDS011;46115;44.484;11.314;2023-09-12T08:15:22;6.30;;;4.40;;
60257;SDS011;46115;44.484;11.314;2023-09-12T08:19:24;7.18;;;4.18;;
60257;SDS011;46115;44.484;11.314;2023-09-12T08:23:27;5.32;;;4.25;;
60257;SDS011;46115;44.484;11.314;2023-09-12T08:27:29;5.80;;;4.07;;
60257;SDS011;46115;44.484;11.314;2023-09-12T08:31:33;7.00;;;4.13;;
60257;SDS011;46115;44.484;11.314;2023-09-12T08:35:36;6.45;;;4.68;;
60257;SDS011;46115;44.484;11.314;2023-09-12T08:39:41;4.88;;;4.38;;
60257;SDS011;46115;44.484;11.314;2023-09-12T08:43:45;7.10;;;5.13;;
60257;SDS011;46115;44.484;11.314;2023-09-12T08:47:52;8.73;;;4.47;;
60257;SDS011;46115;44.484;11.314;2023-09-12T08:51:55;5.88;;;4.22;;
60257;SDS011;46115;44.484;11.314;2023-09-12T08:55:58;5.15;;;4.13;;
60257;SDS011;46115;44.484;11.314;2023-09-12T09:00:05;7.55;;;4.70;;
60257;SDS011;46115;44.484;11.314;2023-09-12T09:04:12;7.22;;;4.32;;
60257;SDS011;46115;44.484;11.314;2023-09-12T09:08:14;9.23;;;4.50;;
60257;SDS011;46115;44.484;11.314;2023-09-12T09:12:19;7.07;;;4.60;;
60257;SDS011;46115;44.484;11.314;2023-09-12T09:16:21;7.28;;;5.00;;
60257;SDS011;46115;44.484;11.314;2023-09-12T09:20:27;8.52;;;5.07;;
60257;SDS011;46115;44.484;11.314;2023-09-12T09:24:31;7.13;;;4.90;;
60257;SDS011;46115;44.484;11.314;2023-09-12T09:28:33;7.38;;;5.00;;
60257;SDS011;46115;44.484;11.314;2023-09-12T09:32:36;9.95;;;5.10;;
60257;SDS011;46115;44.484;11.314;2023-09-12T09:36:42;9.00;;;5.07;;
60257;SDS011;46115;44.484;11.314;2023-09-12T09:40:44;7.15;;;5.10;;
60257;SDS011;46115;44.484;11.314;2023-09-12T09:44:47;8.05;;;4.72;;
60257;SDS011;46115;44.484;11.314;2023-09-12T09:48:51;8.90;;;4.95;;
60257;SDS011;46115;44.484;11.314;2023-09-12T09:52:56;8.60;;;5.13;;
60257;SDS011;46115;44.484;11.314;2023-09-12T09:56:58;7.78;;;4.82;;
60257;SDS011;46115;44.484;11.314;2023-09-12T10:01:01;7.72;;;5.28;;
60257;SDS011;46115;44.484;11.314;2023-09-12T10:05:05;9.48;;;5.10;;
60257;SDS011;46115;44.484;11.314;2023-09-12T10:09:12;8.68;;;5.32;;
60257;SDS011;46115;44.484;11.314;2023-09-12T10:13:15;8.20;;;5.20;;
60257;SDS011;46115;44.484;11.314;2023-09-12T10:17:19;5.30;;;4.78;;
60257;SDS011;46115;44.484;11.314;2023-09-12T10:21:28;7.20;;;4.95;;
60257;SDS011;46115;44.484;11.314;2023-09-12T10:25:34;7.13;;;5.20;;
60257;SDS011;46115;44.484;11.314;2023-09-12T10:29:38;9.27;;;5.28;;
60257;SDS011;46115;44.484;11.314;2023-09-12T10:33:40;7.68;;;5.28;;
60257;SDS011;46115;44.484;11.314;2023-09-12T10:37:45;6.88;;;5.28;;
60257;SDS011;46115;44.484;11.314;2023-09-12T10:41:52;7.28;;;5.38;;
60257;SDS011;46115;44.484;11.314;2023-09-12T10:45:56;7.95;;;5.40;;
60257;SDS011;46115;44.484;11.314;2023-09-12T10:50:00;8.60;;;5.55;;
60257;SDS011;46115;44.484;11.314;2023-09-12T10:54:03;9.82;;;5.90;;
60257;SDS011;46115;44.484;11.314;2023-09-12T10:58:08;7.93;;;6.03;;
60257;SDS011;46115;44.484;11.314;2023-09-12T11:02:27;9.77;;;5.60;;
60257;SDS011;46115;44.484;11.314;2023-09-12T11:06:31;15.85;;;5.63;;
60257;SDS011;46115;44.484;11.314;2023-09-12T11:10:33;9.88;;;6.35;;
60257;SDS011;46115;44.484;11.314;2023-09-12T11:14:37;7.95;;;6.20;;
60257;SDS011;46115;44.484;11.314;2023-09-12T11:19:16;10.38;;;6.10;;
60257;SDS011;46115;44.484;11.314;2023-09-12T11:23:20;7.25;;;5.70;;
60257;SDS011;46115;44.484;11.314;2023-09-12T11:27:23;6.93;;;5.70;;
60257;SDS011;46115;44.484;11.314;2023-09-12T11:31:34;10.52;;;5.78;;
60257;SDS011;46115;44.484;11.314;2023-09-12T11:35:41;11.35;;;6.22;;
60257;SDS011;46115;44.484;11.314;2023-09-12T11:39:44;10.43;;;5.90;;
60257;SDS011;46115;44.484;11.314;2023-09-12T11:43:46;9.73;;;5.90;;
60257;SDS011;46115;44.484;11.314;2023-09-12T11:47:50;8.55;;;5.97;;
60257;SDS011;46115;44.484;11.314;2023-09-12T11:51:53;9.27;;;6.20;;
60257;SDS011;46115;44.484;11.314;2023-09-12T11:55:56;8.40;;;5.90;;
60257;SDS011;46115;44.484;11.314;2023-09-12T12:00:02;9.40;;;6.10;;
60257;SDS011;46115;44.484;11.314;2023-09-12T12:04:14;9.35;;;6.18;;
60257;SDS011;46115;44.484;11.314;2023-09-12T12:08:17;12.25;;;6.45;;
60257;SDS011;46115;44.484;11.314;2023-09-12T12:12:21;11.02;;;6.15;;
60257;SDS011;46115;44.484;11.314;2023-09-12T12:16:25;9.02;;;6.47;;
60257;SDS011;46115;44.484;11.314;2023-09-12T12:20:28;10.77;;;6.20;;
60257;SDS011;46115;44.484;11.314;2023-09-12T12:24:38;10.32;;;5.80;;
60257;SDS011;46115;44.484;11.314;2023-09-12T12:28:41;10.10;;;6.30;;
60257;SDS011;46115;44.484;11.314;2023-09-12T12:32:45;9.27;;;6.00;;
60257;SDS011;46115;44.484;11.314;2023-09-12T12:37:08;7.43;;;5.82;;
60257;SDS011;46115;44.484;11.314;2023-09-12T12:41:13;8.32;;;5.80;;
60257;SDS011;46115;44.484;11.314;2023-09-12T12:45:17;9.43;;;6.20;;
60257;SDS011;46115;44.484;11.314;2023-09-12T12:49:20;9.23;;;6.10;;
60257;SDS011;46115;44.484;11.314;2023-09-12T12:57:53;8.05;;;6.28;;
60257;SDS011;46115;44.484;11.314;2023-09-12T13:01:55;10.45;;;5.90;;
60257;SDS011;46115;44.484;11.314;2023-09-12T13:05:58;10.15;;;6.15;;
60257;SDS011;46115;44.484;11.314;2023-09-12T13:10:01;7.18;;;5.82;;
60257;SDS011;46115;44.484;11.314;2023-09-12T13:14:05;9.65;;;5.72;;
60257;SDS011;46115;44.484;11.314;2023-09-12T13:18:10;9.15;;;5.88;;
60257;SDS011;46115;44.484;11.314;2023-09-12T13:22:12;9.45;;;6.40;;
60257;SDS011;46115;44.484;11.314;2023-09-12T13:26:16;10.07;;;6.20;;
60257;SDS011;46115;44.484;11.314;2023-09-12T13:30:19;9.68;;;5.72;;
60257;SDS011;46115;44.484;11.314;2023-09-12T13:34:22;10.32;;;5.90;;
60257;SDS011;46115;44.484;11.314;2023-09-12T13:38:24;7.90;;;5.93;;
60257;SDS011;46115;44.484;11.314;2023-09-12T13:42:28;10.95;;;6.13;;
60257;SDS011;46115;44.484;11.314;2023-09-12T13:46:31;8.18;;;6.20;;
60257;SDS011;46115;44.484;11.314;2023-09-12T13:50:34;12.32;;;6.30;;
60257;SDS011;46115;44.484;11.314;2023-09-12T13:54:37;8.90;;;5.70;;
60257;SDS011;46115;44.484;11.314;2023-09-12T13:58:40;7.68;;;6.20;;
60257;SDS011;46115;44.484;11.314;2023-09-12T14:02:43;9.05;;;6.00;;
60257;SDS011;46115;44.484;11.314;2023-09-12T14:06:46;12.20;;;5.93;;
60257;SDS011;46115;44.484;11.314;2023-09-12T14:10:48;8.85;;;6.18;;
60257;SDS011;46115;44.484;11.314;2023-09-12T14:14:52;7.15;;;5.65;;
60257;SDS011;46115;44.484;11.314;2023-09-12T14:18:54;7.10;;;5.82;;
60257;SDS011;46115;44.484;11.314;2023-09-12T14:22:57;12.52;;;6.22;;
60257;SDS011;46115;44.484;11.314;2023-09-12T14:27:00;7.88;;;5.80;;
60257;SDS011;46115;44.484;11.314;2023-09-12T14:31:03;9.65;;;6.00;;
60257;SDS011;46115;44.484;11.314;2023-09-12T14:35:14;7.20;;;6.00;;
60257;SDS011;46115;44.484;11.314;2023-09-12T14:39:16;9.15;;;5.95;;
60257;SDS011;46115;44.484;11.314;2023-09-12T14:43:19;7.22;;;6.10;;
60257;SDS011;46115;44.484;11.314;2023-09-12T14:47:23;7.38;;;5.80;;
60257;SDS011;46115;44.484;11.314;2023-09-12T14:51:28;8.00;;;5.97;;
60257;SDS011;46115;44.484;11.314;2023-09-12T14:55:31;7.40;;;5.70;;
60257;SDS011;46115;44.484;11.314;2023-09-12T14:59:33;8.77;;;5.38;;
60257;SDS011;46115;44.484;11.314;2023-09-12T15:03:37;12.95;;;5.70;;
60257;SDS011;46115;44.484;11.314;2023-09-12T15:07:39;9.10;;;5.70;;
60257;SDS011;46115;44.484;11.314;2023-09-12T15:11:42;9.00;;;5.10;;
60257;SDS011;46115;44.484;11.314;2023-09-12T15:15:44;11.68;;;5.65;;
60257;SDS011;46115;44.484;11.314;2023-09-12T15:19:48;6.57;;;5.20;;
60257;SDS011;46115;44.484;11.314;2023-09-12T15:23:51;12.07;;;5.88;;
60257;SDS011;46115;44.484;11.314;2023-09-12T15:27:53;8.30;;;5.15;;
60257;SDS011;46115;44.484;11.314;2023-09-12T15:31:56;11.60;;;5.30;;
60257;SDS011;46115;44.484;11.314;2023-09-12T15:36:00;9.95;;;5.65;;
60257;SDS011;46115;44.484;11.314;2023-09-12T15:40:03;13.55;;;6.05;;
60257;SDS011;46115;44.484;11.314;2023-09-12T15:44:06;13.57;;;5.65;;
60257;SDS011;46115;44.484;11.314;2023-09-12T15:48:09;10.73;;;5.53;;
60257;SDS011;46115;44.484;11.314;2023-09-12T15:52:12;8.75;;;4.95;;
60257;SDS011;46115;44.484;11.314;2023-09-12T15:56:15;14.02;;;5.57;;
60257;SDS011;46115;44.484;11.314;2023-09-12T16:00:18;11.82;;;5.10;;
60257;SDS011;46115;44.484;11.314;2023-09-12T16:04:20;6.53;;;4.75;;
60257;SDS011;46115;44.484;11.314;2023-09-12T16:08:24;13.18;;;5.97;;
60257;SDS011;46115;44.484;11.314;2023-09-12T16:12:27;11.80;;;5.60;;
60257;SDS011;46115;44.484;11.314;2023-09-12T16:16:30;12.20;;;5.50;;
60257;SDS011;46115;44.484;11.314;2023-09-12T16:20:32;9.05;;;5.75;;
60257;SDS011;46115;44.484;11.314;2023-09-12T16:24:36;15.05;;;5.93;;
60257;SDS011;46115;44.484;11.314;2023-09-12T16:28:38;9.27;;;6.10;;
60257;SDS011;46115;44.484;11.314;2023-09-12T16:32:41;9.52;;;6.05;;
60257;SDS011;46115;44.484;11.314;2023-09-12T16:36:43;10.77;;;6.15;;
60257;SDS011;46115;44.484;11.314;2023-09-12T16:40:47;13.63;;;6.03;;
60257;SDS011;46115;44.484;11.314;2023-09-12T16:44:50;13.73;;;6.60;;
60257;SDS011;46115;44.484;11.314;2023-09-12T16:48:52;12.55;;;6.88;;
60257;SDS011;46115;44.484;11.314;2023-09-12T16:52:55;13.45;;;6.63;;
60257;SDS011;46115;44.484;11.314;2023-09-12T16:56:59;18.42;;;6.65;;
60257;SDS011;46115;44.484;11.314;2023-09-12T17:01:01;15.73;;;7.10;;
60257;SDS011;46115;44.484;11.314;2023-09-12T17:05:04;13.45;;;6.80;;
60257;SDS011;46115;44.484;11.314;2023-09-12T17:09:07;12.00;;;6.35;;
60257;SDS011;46115;44.484;11.314;2023-09-12T17:13:11;13.45;;;6.50;;
60257;SDS011;46115;44.484;11.314;2023-09-12T17:17:14;15.75;;;6.75;;
60257;SDS011;46115;44.484;11.314;2023-09-12T17:21:16;9.80;;;6.63;;
60257;SDS011;46115;44.484;11.314;2023-09-12T17:25:19;16.98;;;7.00;;
60257;SDS011;46115;44.484;11.314;2023-09-12T17:29:23;17.30;;;6.68;;
60257;SDS011;46115;44.484;11.314;2023-09-12T17:33:26;12.70;;;6.85;;
60257;SDS011;46115;44.484;11.314;2023-09-12T17:37:28;13.10;;;6.35;;
60257;SDS011;46115;44.484;11.314;2023-09-12T17:41:31;11.82;;;6.65;;
60257;SDS011;46115;44.484;11.314;2023-09-12T17:45:35;10.73;;;6.07;;
60257;SDS011;46115;44.484;11.314;2023-09-12T17:49:37;9.50;;;6.60;;
60257;SDS011;46115;44.484;11.314;2023-09-12T17:53:40;10.43;;;5.97;;
60257;SDS011;46115;44.484;11.314;2023-09-12T17:57:42;12.75;;;6.78;;
60257;SDS011;46115;44.484;11.314;2023-09-12T18:01:46;8.30;;;5.80;;
60257;SDS011;46115;44.484;11.314;2023-09-12T18:05:49;11.88;;;6.40;;
60257;SDS011;46115;44.484;11.314;2023-09-12T18:09:51;9.55;;;6.13;;
60257;SDS011;46115;44.484;11.314;2023-09-12T22:06:07;6.72;;;5.47;;
60257;SDS011;46115;44.484;11.314;2023-09-12T22:10:10;6.18;;;5.57;;
60257;SDS011;46115;44.484;11.314;2023-09-12T22:14:12;6.40;;;5.80;;
60257;SDS011;46115;44.484;11.314;2023-09-12T22:18:15;7.13;;;5.65;;
60257;SDS011;46115;44.484;11.314;2023-09-12T22:22:19;6.22;;;5.60;;
60257;SDS011;46115;44.484;11.314;2023-09-12T22:26:22;8.00;;;5.80;;
60257;SDS011;46115;44.484;11.314;2023-09-12T22:30:25;6.00;;;5.40;;
60257;SDS011;46115;44.484;11.314;2023-09-12T22:34:27;6.25;;;5.65;;
60257;SDS011;46115;44.484;11.314;2023-09-12T22:38:31;7.07;;;5.60;;
60257;SDS011;46115;44.484;11.314;2023-09-12T22:42:33;6.25;;;5.65;;
60257;SDS011;46115;44.484;11.314;2023-09-12T22:46:36;6.82;;;5.60;;
60257;SDS011;46115;44.484;11.314;2023-09-12T22:50:39;6.82;;;6.20;;
60257;SDS011;46115;44.484;11.314;2023-09-12T22:54:44;10.05;;;5.70;;
60257;SDS011;46115;44.484;11.314;2023-09-12T22:58:47;7.32;;;5.75;;
60257;SDS011;46115;44.484;11.314;2023-09-12T23:02:49;6.30;;;5.70;;
60257;SDS011;46115;44.484;11.314;2023-09-12T23:06:52;7.50;;;6.07;;
60257;SDS011;46115;44.484;11.314;2023-09-12T23:10:55;11.30;;;6.18;;
60257;SDS011;46115;44.484;11.314;2023-09-12T23:14:58;8.25;;;5.75;;
60257;SDS011;46115;44.484;11.314;2023-09-12T23:19:00;6.50;;;5.63;;
60257;SDS011;46115;44.484;11.314;2023-09-12T23:23:03;6.25;;;5.40;;
60257;SDS011;46115;44.484;11.314;2023-09-12T23:27:07;7.70;;;5.95;;
60257;SDS011;46115;44.484;11.314;2023-09-12T23:31:09;7.45;;;5.60;;
60257;SDS011;46115;44.484;11.314;2023-09-12T23:35:12;6.38;;;5.78;;
60257;SDS011;46115;44.484;11.314;2023-09-12T23:39:14;6.57;;;5.88;;
60257;SDS011;46115;44.484;11.314;2023-09-12T23:43:18;8.65;;;6.20;;
60257;SDS011;46115;44.484;11.314;2023-09-12T23:47:21;6.43;;;5.82;;
60257;SDS011;46115;44.484;11.314;2023-09-12T23:51:23;7.10;;;5.80;;
60257;SDS011;46115;44.484;11.314;2023-09-12T23:55:26;7.05;;;5.95;;
60257;SDS011;46115;44.484;11.314;2023-09-12T23:59:29;6.60;;;5.90;;
